createdAt,value
2023-04-05T00:00:54.398Z,5.50
2023-04-05T00:05:56.094Z,5.80
2023-04-05T00:10:57.740Z,5.90
2023-04-05T00:16:01.296Z,6.07
2023-04-05T00:21:03.265Z,5.53
2023-04-05T00:26:04.932Z,5.43
2023-04-05T00:31:06.618Z,7.67
2023-04-05T00:36:21.080Z,5.57
2023-04-05T00:41:22.941Z,8.47
2023-04-05T00:46:24.675Z,10.67
2023-04-05T00:51:26.350Z,6.97
2023-04-05T00:56:28.999Z,8.70
2023-04-05T01:01:37.817Z,9.83
2023-04-05T01:07:13.105Z,8.97
2023-04-05T01:12:21.081Z,8.23
2023-04-05T01:17:28.395Z,7.37
2023-04-05T01:23:04.357Z,7.80
2023-04-05T01:28:34.196Z,9.13
2023-04-05T01:33:48.350Z,13.03
2023-04-05T01:38:51.013Z,10.53
2023-04-05T01:43:52.871Z,10.73
2023-04-05T01:48:54.735Z,13.17
2023-04-05T01:53:56.754Z,12.43
2023-04-05T01:58:58.646Z,13.20
2023-04-05T02:04:00.613Z,13.17
2023-04-05T02:09:02.502Z,14.23
2023-04-05T02:14:04.404Z,11.30
2023-04-05T02:19:07.025Z,10.80
2023-04-05T02:24:08.904Z,9.63
2023-04-05T02:29:10.931Z,10.73
2023-04-05T02:34:12.749Z,9.27
2023-04-05T02:39:14.547Z,10.33
2023-04-05T02:44:16.470Z,10.20
2023-04-05T02:49:18.245Z,9.97
2023-04-05T02:54:20.588Z,10.47
2023-04-05T02:59:23.170Z,10.07
2023-04-05T03:04:26.989Z,10.43
2023-04-05T03:09:34.884Z,9.70
2023-04-05T03:14:41.575Z,10.47
2023-04-05T03:19:46.455Z,11.07
2023-04-05T03:24:53.987Z,10.40
2023-04-05T03:29:57.225Z,9.87
2023-04-05T03:34:59.555Z,10.03
2023-04-05T03:40:02.310Z,10.53
2023-04-05T03:45:06.221Z,9.40
2023-04-05T03:50:09.111Z,11.17
2023-04-05T03:55:10.977Z,10.27
2023-04-05T04:00:17.842Z,10.73
2023-04-05T04:05:39.331Z,10.40
2023-04-05T04:10:42.681Z,10.13
2023-04-05T04:15:55.426Z,11.43
2023-04-05T04:21:07.103Z,9.80
2023-04-05T04:26:37.662Z,9.23
2023-04-05T04:32:07.087Z,9.30
2023-04-05T04:37:37.722Z,9.80
2023-04-05T04:43:01.745Z,9.43
2023-04-05T04:48:16.802Z,8.83
2023-04-05T04:53:28.441Z,9.50
2023-04-05T04:58:31.229Z,11.00
2023-04-05T05:03:40.403Z,10.10
2023-04-05T05:08:42.271Z,9.33
2023-04-05T05:13:44.836Z,9.93
2023-04-05T05:18:54.390Z,9.60
2023-04-05T05:23:59.103Z,10.15
2023-04-05T05:29:02.342Z,11.57
2023-04-05T05:34:06.755Z,11.50
2023-04-05T05:39:10.302Z,10.25
2023-04-05T05:44:12.125Z,9.85
2023-04-05T05:49:13.934Z,11.63
2023-04-05T05:54:16.053Z,11.85
2023-04-05T05:59:18.016Z,11.98
2023-04-05T06:04:20.036Z,11.07
2023-04-05T06:09:23.401Z,12.43
2023-04-05T06:14:25.663Z,11.55
2023-04-05T06:19:27.574Z,12.43
2023-04-05T06:24:31.981Z,13.25
2023-04-05T06:29:33.867Z,15.32
2023-04-05T06:34:35.730Z,16.23
2023-04-05T06:39:37.592Z,15.73
2023-04-05T06:44:39.407Z,18.88
2023-04-05T06:49:41.258Z,15.80
2023-04-05T06:54:43.068Z,16.23
2023-04-05T06:59:44.880Z,15.55
2023-04-05T07:04:47.508Z,14.88
2023-04-05T07:09:49.383Z,14.75
2023-04-05T07:14:51.240Z,14.50
2023-04-05T07:19:53.037Z,14.45
2023-04-05T07:24:55.656Z,15.38
2023-04-05T07:29:57.619Z,15.15
2023-04-05T07:34:59.430Z,15.93
2023-04-05T07:40:01.237Z,16.00
2023-04-05T07:45:03.411Z,15.98
2023-04-05T07:50:07.180Z,16.55
2023-04-05T07:55:10.077Z,16.42
2023-04-05T08:00:13.479Z,17.50
2023-04-05T08:05:15.898Z,15.98
2023-04-05T08:10:17.854Z,17.90
2023-04-05T08:15:19.731Z,16.98
2023-04-05T08:20:21.504Z,16.92
2023-04-05T08:25:23.324Z,16.67
2023-04-05T08:30:25.132Z,16.63
2023-04-05T08:35:27.049Z,17.90
2023-04-05T08:40:49.447Z,16.77
2023-04-05T08:45:52.841Z,17.17
2023-04-05T08:50:55.769Z,17.20
2023-04-05T08:56:00.774Z,17.10
2023-04-05T09:01:04.857Z,17.73
2023-04-05T09:06:10.258Z,17.25
2023-04-05T09:11:12.749Z,17.35
2023-04-05T09:16:19.010Z,17.40
2023-04-05T09:21:20.989Z,17.77
2023-04-05T09:26:26.389Z,18.83
2023-04-05T09:31:37.459Z,18.02
2023-04-05T09:36:45.864Z,18.20
2023-04-05T09:42:24.811Z,18.98
2023-04-05T09:47:31.375Z,17.75
2023-04-05T09:52:36.839Z,18.30
2023-04-05T09:57:40.519Z,18.05
2023-04-05T10:02:42.575Z,19.20
2023-04-05T10:07:45.133Z,19.42
2023-04-05T10:12:48.123Z,19.45
2023-04-05T10:18:00.893Z,19.27
2023-04-05T10:23:27.918Z,20.60
2023-04-05T10:28:43.365Z,18.95
2023-04-05T10:33:47.933Z,19.30
2023-04-05T10:39:04.395Z,21.02
2023-04-05T10:44:22.639Z,19.55
2023-04-05T10:49:37.766Z,19.85
2023-04-05T10:54:40.780Z,19.05
2023-04-05T10:59:45.331Z,19.65
2023-04-05T11:04:55.657Z,18.92
2023-04-05T11:10:06.024Z,19.92
2023-04-05T11:15:43.320Z,19.65
2023-04-05T11:21:05.609Z,20.58
2023-04-05T11:26:07.461Z,19.80
2023-04-05T11:31:20.574Z,18.98
2023-04-05T11:36:46.167Z,19.20
2023-04-05T11:42:07.299Z,19.40
2023-04-05T11:47:10.780Z,19.92
2023-04-05T11:52:31.459Z,19.70
2023-04-05T11:57:33.276Z,19.50
2023-04-05T12:02:35.385Z,19.67
2023-04-05T12:07:37.435Z,18.85
2023-04-05T12:12:44.662Z,19.70
2023-04-05T12:17:55.355Z,19.30
2023-04-05T12:22:57.797Z,19.27
2023-04-05T12:28:09.111Z,20.13
2023-04-05T12:33:10.982Z,21.25
2023-04-05T12:38:15.961Z,20.55
2023-04-05T12:43:20.111Z,20.48
2023-04-05T12:48:25.875Z,20.67
2023-04-05T12:53:28.827Z,19.88
2023-04-05T12:58:36.359Z,19.60
2023-04-05T13:03:38.202Z,21.05
2023-04-05T13:08:40.085Z,19.88
2023-04-05T13:13:41.903Z,19.88
2023-04-05T13:18:44.448Z,20.08
2023-04-05T13:23:46.286Z,20.60
2023-04-05T13:28:48.124Z,21.02
2023-04-05T13:33:50.075Z,20.42
2023-04-05T13:38:52.038Z,21.70
2023-04-05T13:43:53.889Z,21.35
2023-04-05T13:48:55.840Z,21.05
2023-04-05T13:53:58.131Z,21.33
2023-04-05T13:59:00.047Z,21.27
2023-04-05T14:04:02.141Z,22.00
2023-04-05T14:09:04.936Z,20.90
2023-04-05T14:14:06.904Z,21.33
2023-04-05T14:19:08.895Z,21.38
2023-04-05T14:24:10.875Z,21.55
2023-04-05T14:29:13.127Z,21.13
2023-04-05T14:34:15.167Z,20.63
2023-04-05T14:39:17.041Z,21.33
2023-04-05T14:44:18.926Z,21.23
2023-04-05T14:49:21.599Z,21.10
2023-04-05T14:54:23.452Z,20.30
2023-04-05T14:59:26.381Z,21.42
2023-04-05T15:04:29.017Z,19.92
2023-04-05T15:09:30.899Z,20.05
2023-04-05T15:14:32.792Z,20.60
2023-04-05T15:19:35.600Z,20.58
2023-04-05T15:24:38.206Z,20.80
2023-04-05T15:29:40.059Z,20.65
2023-04-05T15:34:41.985Z,20.00
2023-04-05T15:39:43.874Z,20.05
2023-04-05T15:44:45.832Z,20.90
2023-04-05T15:49:48.756Z,20.33
2023-04-05T15:54:50.639Z,20.48
2023-04-05T15:59:54.452Z,21.27
2023-04-05T16:04:56.345Z,21.38
2023-04-05T16:09:58.310Z,20.75
2023-04-05T16:15:00.211Z,20.77
2023-04-05T16:20:02.289Z,20.13
2023-04-05T16:25:04.706Z,20.20
2023-04-05T16:30:07.528Z,19.35
2023-04-05T16:35:09.657Z,20.83
2023-04-05T16:40:11.847Z,19.48
2023-04-05T16:45:13.868Z,21.23
2023-04-05T16:50:15.816Z,20.23
2023-04-05T16:55:17.753Z,21.02
2023-04-05T17:00:19.987Z,22.33
2023-04-05T17:05:21.836Z,21.92
2023-04-05T17:10:23.713Z,21.63
2023-04-05T17:15:26.383Z,21.23
2023-04-05T17:20:28.393Z,20.95
2023-04-05T17:25:31.399Z,21.20
2023-04-05T17:30:33.444Z,21.20
2023-04-05T17:35:35.536Z,21.10
2023-04-05T17:40:37.524Z,21.15
2023-04-05T17:45:39.596Z,20.88
2023-04-05T17:50:41.511Z,20.50
2023-04-05T17:55:43.807Z,20.40
2023-04-05T18:00:45.700Z,19.10
2023-04-05T18:05:54.917Z,19.17
2023-04-05T18:11:00.095Z,18.95
2023-04-05T18:16:02.154Z,18.95
2023-04-05T18:21:04.685Z,18.90
2023-04-05T18:26:07.916Z,18.85
2023-04-05T18:31:10.218Z,18.67
2023-04-05T18:36:12.986Z,17.92
2023-04-05T18:41:15.340Z,16.92
2023-04-05T18:46:18.901Z,15.95
2023-04-05T18:51:22.488Z,16.13
2023-04-05T18:56:24.484Z,14.60
2023-04-05T19:01:26.477Z,14.85
2023-04-05T19:06:28.412Z,14.88
2023-04-05T19:11:30.374Z,15.35
2023-04-05T19:16:32.298Z,50.80
2023-04-05T19:21:34.199Z,38.80
2023-04-05T19:26:36.392Z,40.95
2023-04-05T19:31:39.992Z,46.90
2023-04-05T19:36:41.959Z,24.50
2023-04-05T19:41:43.889Z,16.27
2023-04-05T19:46:46.107Z,12.85
2023-04-05T19:51:48.195Z,12.82
2023-04-05T19:56:50.073Z,20.95
2023-04-05T20:01:52.013Z,19.55
2023-04-05T20:06:56.500Z,11.23
2023-04-05T20:12:03.837Z,11.23
2023-04-05T20:17:06.421Z,12.00
2023-04-05T20:22:09.378Z,9.85
2023-04-05T20:27:12.327Z,9.63
2023-04-05T20:32:15.118Z,8.97
2023-04-05T20:37:17.019Z,9.03
2023-04-05T20:42:18.878Z,10.07
2023-04-05T20:47:20.807Z,8.73
2023-04-05T20:52:22.690Z,9.47
2023-04-05T20:57:24.573Z,9.53
2023-04-05T21:02:26.690Z,8.90
2023-04-05T21:07:28.633Z,9.00
2023-04-05T21:12:30.506Z,13.55
2023-04-05T21:17:33.821Z,22.77
2023-04-05T21:22:35.766Z,13.35
2023-04-05T21:27:37.636Z,11.57
2023-04-05T21:32:39.602Z,11.10
2023-04-05T21:37:41.484Z,11.18
2023-04-05T21:42:43.398Z,9.30
2023-04-05T21:47:45.273Z,9.35
2023-04-05T21:52:47.197Z,9.57
2023-04-05T21:57:49.041Z,9.18
2023-04-05T22:02:51.034Z,8.32
2023-04-05T22:07:52.921Z,9.17
2023-04-05T22:12:55.164Z,10.17
2023-04-05T22:17:57.061Z,9.98
2023-04-05T22:22:58.996Z,11.67
2023-04-05T22:28:01.136Z,10.70
2023-04-05T22:33:03.436Z,9.93
2023-04-05T22:38:05.416Z,9.50
2023-04-05T22:43:07.395Z,8.32
2023-04-05T22:48:09.266Z,8.80
2023-04-05T22:53:11.454Z,9.05
2023-04-05T22:58:13.831Z,8.82
2023-04-05T23:03:15.885Z,9.52
2023-04-05T23:08:17.979Z,9.43
2023-04-05T23:13:21.429Z,8.68
2023-04-05T23:18:23.333Z,8.05
2023-04-05T23:23:25.901Z,8.50
2023-04-05T23:28:27.780Z,9.18
2023-04-05T23:33:29.637Z,9.27
2023-04-05T23:38:31.673Z,9.15
2023-04-05T23:43:33.697Z,8.10
2023-04-05T23:48:35.657Z,9.52
2023-04-05T23:53:37.779Z,8.97
2023-04-05T23:58:42.312Z,7.47
